createdAt,value
2023-02-15T00:03:44.267Z,17.03
2023-02-15T00:09:05.913Z,17.33
2023-02-15T00:14:27.733Z,15.63
2023-02-15T00:19:49.218Z,16.33
2023-02-15T00:25:10.572Z,16.63
2023-02-15T00:30:32.993Z,16.13
2023-02-15T00:35:58.771Z,16.87
2023-02-15T00:41:20.204Z,17.13
2023-02-15T00:46:41.576Z,15.87
2023-02-15T00:52:04.331Z,15.40
2023-02-15T00:57:25.883Z,16.40
2023-02-15T01:02:47.563Z,16.73
2023-02-15T01:08:09.731Z,16.47
2023-02-15T01:13:33.655Z,15.70
2023-02-15T01:18:58.515Z,15.60
2023-02-15T01:24:19.695Z,15.07
2023-02-15T01:29:41.151Z,15.50
2023-02-15T01:35:03.253Z,15.13
2023-02-15T01:40:25.641Z,15.07
2023-02-15T01:45:49.976Z,14.93
2023-02-15T01:51:12.436Z,15.47
2023-02-15T01:56:36.755Z,15.83
2023-02-15T02:02:00.709Z,15.20
2023-02-15T02:07:27.943Z,15.10
2023-02-15T02:12:51.491Z,12.97
2023-02-15T02:18:25.186Z,13.00
2023-02-15T02:24:05.074Z,12.73
2023-02-15T02:29:51.600Z,12.80
2023-02-15T02:35:29.951Z,13.70
2023-02-15T02:41:18.199Z,13.30
2023-02-15T02:47:14.394Z,13.57
2023-02-15T02:52:43.355Z,12.83
2023-02-15T02:58:07.241Z,12.57
2023-02-15T03:03:42.400Z,13.03
2023-02-15T03:09:23.852Z,12.97
2023-02-15T03:14:49.294Z,12.83
2023-02-15T03:20:35.633Z,12.90
2023-02-15T03:26:04.347Z,11.40
2023-02-15T03:31:32.616Z,12.30
2023-02-15T03:37:23.081Z,13.00
2023-02-15T03:42:46.237Z,12.27
2023-02-15T03:48:09.459Z,12.20
2023-02-15T03:53:31.288Z,12.03
2023-02-15T03:59:11.411Z,11.50
2023-02-15T04:04:34.930Z,11.63
2023-02-15T04:10:14.636Z,10.67
2023-02-15T04:15:54.695Z,11.10
2023-02-15T04:21:35.265Z,10.70
2023-02-15T04:26:57.083Z,10.47
2023-02-15T04:32:18.629Z,9.97
2023-02-15T04:37:41.574Z,10.30
2023-02-15T04:43:03.076Z,10.33
2023-02-15T04:48:24.675Z,10.77
2023-02-15T04:53:46.362Z,10.27
2023-02-15T04:59:07.856Z,11.03
2023-02-15T05:04:29.571Z,10.23
2023-02-15T05:09:50.976Z,9.77
2023-02-15T05:15:12.771Z,9.23
2023-02-15T05:20:34.457Z,8.40
2023-02-15T05:26:13.963Z,8.03
2023-02-15T05:31:36.676Z,8.03
2023-02-15T05:36:58.543Z,7.50
2023-02-15T05:42:20.026Z,7.00
2023-02-15T05:47:41.324Z,7.77
2023-02-15T05:53:02.516Z,7.80
2023-02-15T05:58:23.946Z,8.13
2023-02-15T06:03:46.079Z,8.17
2023-02-15T06:09:07.329Z,8.27
2023-02-15T06:14:29.062Z,7.23
2023-02-15T06:19:50.436Z,7.57
2023-02-15T06:25:12.381Z,7.53
2023-02-15T06:30:34.091Z,7.80
2023-02-15T06:35:55.774Z,7.50
2023-02-15T06:41:17.317Z,7.83
2023-02-15T06:46:38.908Z,7.17
2023-02-15T06:52:00.340Z,7.40
2023-02-15T06:57:21.806Z,7.63
2023-02-15T07:02:43.181Z,10.90
2023-02-15T07:08:04.784Z,10.00
2023-02-15T07:13:26.173Z,9.83
2023-02-15T07:18:47.914Z,8.70
2023-02-15T07:24:09.424Z,8.10
2023-02-15T07:29:30.913Z,8.17
2023-02-15T07:34:52.356Z,8.67
2023-02-15T07:40:13.915Z,8.97
2023-02-15T07:45:35.225Z,8.90
2023-02-15T07:50:59.937Z,9.40
2023-02-15T07:56:21.234Z,9.20
2023-02-15T08:01:42.782Z,8.73
2023-02-15T08:07:05.319Z,9.73
2023-02-15T08:12:30.114Z,9.73
2023-02-15T08:17:51.697Z,9.53
2023-02-15T08:23:13.231Z,10.80
2023-02-15T08:28:34.493Z,10.83
2023-02-15T08:33:57.873Z,11.37
2023-02-15T08:39:19.208Z,10.93
2023-02-15T08:44:40.715Z,10.00
2023-02-15T08:50:02.301Z,9.90
2023-02-15T08:55:23.993Z,10.00
2023-02-15T09:00:47.456Z,9.63
2023-02-15T09:06:09.156Z,9.80
2023-02-15T09:11:38.359Z,9.67
2023-02-15T09:16:59.637Z,8.73
2023-02-15T09:22:21.080Z,9.93
2023-02-15T09:27:42.733Z,9.13
2023-02-15T09:33:04.056Z,9.87
2023-02-15T09:38:25.720Z,8.93
2023-02-15T09:44:10.846Z,7.00
2023-02-15T09:49:38.100Z,7.27
2023-02-15T09:55:05.680Z,7.63
2023-02-15T10:00:51.282Z,10.53
2023-02-15T10:06:27.101Z,10.00
2023-02-15T10:12:21.733Z,8.80
2023-02-15T10:18:00.353Z,13.83
2023-02-15T10:23:40.124Z,10.93
2023-02-15T10:29:24.232Z,8.73
2023-02-15T10:35:01.578Z,9.17
2023-02-15T10:40:47.677Z,7.90
2023-02-15T10:46:18.365Z,9.77
2023-02-15T10:52:28.815Z,6.80
2023-02-15T10:58:03.831Z,5.67
2023-02-15T11:04:14.130Z,3.40
2023-02-15T11:09:48.027Z,2.73
2023-02-15T11:15:16.682Z,2.70
2023-02-15T11:20:52.083Z,5.53
2023-02-15T11:26:35.074Z,6.20
2023-02-15T11:32:01.901Z,8.13
2023-02-15T11:37:50.233Z,9.17
2023-02-15T11:43:24.083Z,6.67
2023-02-15T11:48:45.719Z,5.10
2023-02-15T11:54:09.524Z,4.70
2023-02-15T11:59:36.048Z,4.57
2023-02-15T12:05:14.490Z,4.80
2023-02-15T12:10:54.428Z,5.00
2023-02-15T12:16:15.994Z,4.43
2023-02-15T12:21:42.663Z,4.73
2023-02-15T12:27:07.080Z,4.83
2023-02-15T12:32:36.006Z,3.97
2023-02-15T12:38:05.118Z,4.03
2023-02-15T12:43:34.032Z,3.13
2023-02-15T12:49:09.307Z,3.43
2023-02-15T12:54:39.757Z,2.73
2023-02-15T13:00:04.806Z,2.60
2023-02-15T13:05:33.690Z,2.33
2023-02-15T13:11:00.240Z,2.30
2023-02-15T13:16:34.462Z,2.27
2023-02-15T13:21:57.527Z,2.53
2023-02-15T13:27:22.306Z,2.27
2023-02-15T13:32:44.555Z,2.20
2023-02-15T13:38:28.069Z,2.20
2023-02-15T13:44:01.432Z,2.27
2023-02-15T13:49:51.996Z,2.00
2023-02-15T13:55:28.801Z,2.20
2023-02-15T14:01:25.507Z,1.93
2023-02-15T14:06:49.800Z,2.10
2023-02-15T14:12:36.327Z,2.37
2023-02-15T14:18:34.905Z,2.63
2023-02-15T14:24:14.845Z,2.50
2023-02-15T14:29:48.747Z,2.20
2023-02-15T14:35:29.297Z,2.20
2023-02-15T14:41:06.244Z,1.83
2023-02-15T14:46:33.772Z,1.60
2023-02-15T14:51:58.032Z,2.00
2023-02-15T14:57:19.502Z,1.90
2023-02-15T15:02:51.496Z,1.93
2023-02-15T15:08:38.224Z,2.20
2023-02-15T15:14:01.773Z,1.77
2023-02-15T15:19:52.614Z,2.10
2023-02-15T15:25:36.985Z,2.30
2023-02-15T15:31:23.025Z,2.17
2023-02-15T15:37:12.825Z,2.27
2023-02-15T15:43:11.252Z,2.13
2023-02-15T15:48:39.843Z,2.50
2023-02-15T15:54:03.505Z,2.37
2023-02-15T15:59:28.928Z,2.30
2023-02-15T16:04:50.165Z,2.37
2023-02-15T16:10:27.695Z,2.33
2023-02-15T16:15:53.534Z,2.50
2023-02-15T16:21:28.075Z,2.70
2023-02-15T16:27:01.726Z,2.60
2023-02-15T16:32:29.154Z,2.53
2023-02-15T16:37:50.344Z,2.40
2023-02-15T16:43:26.072Z,2.90
2023-02-15T16:48:52.797Z,2.90
2023-02-15T16:54:24.115Z,3.13
2023-02-15T16:59:52.013Z,4.97
2023-02-15T17:05:14.749Z,3.67
2023-02-15T17:10:38.482Z,3.90
2023-02-15T17:16:03.181Z,3.97
2023-02-15T17:21:29.233Z,5.00
2023-02-15T17:27:00.879Z,9.30
2023-02-15T17:32:26.419Z,17.07
2023-02-15T17:37:49.947Z,12.77
2023-02-15T17:43:11.663Z,7.60
2023-02-15T17:48:36.604Z,8.40
2023-02-15T17:54:16.428Z,9.03
2023-02-15T17:59:56.455Z,4.77
2023-02-15T18:05:36.933Z,4.57
2023-02-15T18:11:17.562Z,5.37
2023-02-15T18:16:43.523Z,5.10
2023-02-15T18:22:15.663Z,5.10
2023-02-15T18:27:37.215Z,6.33
2023-02-15T18:32:59.770Z,8.23
2023-02-15T18:38:22.318Z,6.87
2023-02-15T18:43:43.900Z,6.03
2023-02-15T18:49:05.362Z,6.10
2023-02-15T18:54:27.076Z,5.53
2023-02-15T18:59:51.812Z,5.87
2023-02-15T19:05:13.912Z,6.13
2023-02-15T19:10:36.815Z,5.70
2023-02-15T19:15:59.032Z,5.80
2023-02-15T19:21:20.366Z,6.70
2023-02-15T19:26:45.979Z,6.47
2023-02-15T19:32:09.974Z,9.87
2023-02-15T19:37:42.759Z,9.93
2023-02-15T19:43:10.485Z,10.03
2023-02-15T19:48:31.823Z,8.50
2023-02-15T19:53:53.166Z,6.87
2023-02-15T19:59:25.039Z,7.33
2023-02-15T20:04:46.750Z,8.80
2023-02-15T20:10:15.746Z,8.90
2023-02-15T20:15:37.744Z,8.33
2023-02-15T20:21:00.689Z,8.40
2023-02-15T20:26:29.677Z,8.30
2023-02-15T20:31:55.579Z,7.53
2023-02-15T20:37:24.111Z,8.37
2023-02-15T20:42:45.776Z,8.07
2023-02-15T20:48:07.382Z,8.03
2023-02-15T20:53:29.721Z,9.10
2023-02-15T20:58:52.356Z,7.40
2023-02-15T21:04:34.337Z,7.40
2023-02-15T21:09:55.544Z,8.13
2023-02-15T21:15:33.219Z,8.37
2023-02-15T21:20:57.625Z,8.83
2023-02-15T21:26:21.958Z,8.03
2023-02-15T21:31:43.407Z,7.90
2023-02-15T21:37:05.276Z,5.90
2023-02-15T21:43:01.388Z,5.63
2023-02-15T21:48:22.840Z,5.50
2023-02-15T21:53:46.336Z,5.53
2023-02-15T21:59:15.248Z,4.77
2023-02-15T22:04:36.764Z,5.70
2023-02-15T22:09:58.292Z,6.07
2023-02-15T22:15:24.943Z,6.40
2023-02-15T22:20:46.774Z,5.00
2023-02-15T22:26:13.544Z,5.10
2023-02-15T22:31:35.005Z,4.83
2023-02-15T22:36:57.589Z,5.00
2023-02-15T22:42:27.927Z,5.57
2023-02-15T22:47:52.124Z,5.20
2023-02-15T22:53:13.679Z,5.47
2023-02-15T22:58:35.412Z,5.33
2023-02-15T23:03:57.165Z,6.83
2023-02-15T23:09:18.787Z,6.50
2023-02-15T23:14:40.274Z,5.70
2023-02-15T23:20:01.822Z,5.20
2023-02-15T23:25:25.338Z,5.47
2023-02-15T23:30:47.934Z,5.53
2023-02-15T23:36:26.502Z,5.90
2023-02-15T23:41:48.009Z,6.73
2023-02-15T23:47:45.452Z,6.17
2023-02-15T23:53:07.051Z,6.60
2023-02-15T23:58:35.405Z,6.73
